createdAt,value
2023-03-24T00:00:14.072Z,3.10
2023-03-24T00:02:44.146Z,3.63
2023-03-24T00:05:14.270Z,3.70
2023-03-24T00:07:43.553Z,4.07
2023-03-24T00:10:15.054Z,3.80
2023-03-24T00:12:43.723Z,3.60
2023-03-24T00:15:15.447Z,3.23
2023-03-24T00:17:45.298Z,4.10
2023-03-24T00:20:17.005Z,3.53
2023-03-24T00:22:50.722Z,3.40
2023-03-24T00:25:20.836Z,2.70
2023-03-24T00:27:49.875Z,3.50
2023-03-24T00:30:20.654Z,4.17
2023-03-24T00:32:48.924Z,4.50
2023-03-24T00:35:17.859Z,3.30
2023-03-24T00:37:47.405Z,5.60
2023-03-24T00:40:17.651Z,3.30
2023-03-24T00:42:47.790Z,5.73
2023-03-24T00:45:19.329Z,4.37
2023-03-24T00:47:50.256Z,3.87
2023-03-24T00:50:20.658Z,3.80
2023-03-24T00:52:49.367Z,3.80
2023-03-24T00:55:18.251Z,5.20
2023-03-24T00:57:50.727Z,5.50
2023-03-24T01:00:24.120Z,5.10
2023-03-24T01:02:57.781Z,4.30
2023-03-24T01:05:28.615Z,3.40
2023-03-24T01:07:58.198Z,4.57
2023-03-24T01:10:27.452Z,3.83
2023-03-24T01:12:58.195Z,4.53
2023-03-24T01:15:33.456Z,3.23
2023-03-24T01:18:03.582Z,4.97
2023-03-24T01:20:33.344Z,4.07
2023-03-24T01:23:02.031Z,3.53
2023-03-24T01:25:30.773Z,3.77
2023-03-24T01:27:59.247Z,5.30
2023-03-24T01:30:30.621Z,4.17
2023-03-24T01:32:59.193Z,3.43
2023-03-24T01:35:29.616Z,3.53
2023-03-24T01:37:58.129Z,4.00
2023-03-24T01:40:28.932Z,9.30
2023-03-24T01:43:00.266Z,5.03
2023-03-24T01:46:03.154Z,5.00
2023-03-24T01:48:37.764Z,5.00
2023-03-24T01:51:10.989Z,4.63
2023-03-24T01:53:43.715Z,4.23
2023-03-24T01:56:13.263Z,3.60
2023-03-24T01:58:48.171Z,3.10
2023-03-24T02:01:22.068Z,2.90
2023-03-24T02:04:17.904Z,3.23
2023-03-24T02:06:49.017Z,3.40
2023-03-24T02:09:17.281Z,4.13
2023-03-24T02:11:46.329Z,4.90
2023-03-24T02:14:15.159Z,3.30
2023-03-24T02:17:04.398Z,4.70
2023-03-24T02:20:12.059Z,3.60
2023-03-24T02:23:17.328Z,4.97
2023-03-24T02:26:13.574Z,2.67
2023-03-24T02:28:49.605Z,4.00
2023-03-24T02:31:48.328Z,3.07
2023-03-24T02:34:43.887Z,3.30
2023-03-24T02:37:51.269Z,4.10
2023-03-24T02:40:35.238Z,3.17
2023-03-24T02:43:22.651Z,2.97
2023-03-24T02:46:00.054Z,5.23
2023-03-24T02:48:37.498Z,3.13
2023-03-24T02:51:12.013Z,2.83
2023-03-24T02:53:50.930Z,3.57
2023-03-24T02:56:33.344Z,4.20
2023-03-24T02:59:17.611Z,3.87
2023-03-24T03:01:54.358Z,2.50
2023-03-24T03:04:49.999Z,2.60
2023-03-24T03:07:22.796Z,2.33
2023-03-24T03:09:57.214Z,3.10
2023-03-24T03:12:31.854Z,2.50
2023-03-24T03:15:04.169Z,4.10
2023-03-24T03:17:38.279Z,2.37
2023-03-24T03:20:11.277Z,3.50
2023-03-24T03:22:49.638Z,3.60
2023-03-24T03:25:22.856Z,3.57
2023-03-24T03:27:56.716Z,4.60
2023-03-24T03:30:31.297Z,4.63
2023-03-24T03:33:06.718Z,5.87
2023-03-24T03:35:39.374Z,5.80
2023-03-24T03:38:15.697Z,3.57
2023-03-24T03:40:50.723Z,3.90
2023-03-24T03:43:23.940Z,4.97
2023-03-24T03:45:52.259Z,4.17
2023-03-24T03:48:26.463Z,4.50
2023-03-24T03:51:10.358Z,6.17
2023-03-24T03:53:51.406Z,4.30
2023-03-24T03:56:23.127Z,4.80
2023-03-24T03:59:28.025Z,2.53
2023-03-24T04:01:56.891Z,3.53
2023-03-24T04:05:07.748Z,3.17
2023-03-24T04:08:09.849Z,2.80
2023-03-24T04:11:44.523Z,4.00
2023-03-24T04:15:03.741Z,3.90
2023-03-24T04:18:18.357Z,3.13
2023-03-24T04:21:08.107Z,3.03
2023-03-24T04:23:44.708Z,3.73
2023-03-24T04:26:26.706Z,3.50
2023-03-24T04:29:09.942Z,5.00
2023-03-24T04:31:44.388Z,3.63
2023-03-24T04:34:19.202Z,3.07
2023-03-24T04:36:57.209Z,4.57
2023-03-24T04:39:39.103Z,2.77
2023-03-24T04:42:15.840Z,2.83
2023-03-24T04:44:44.680Z,2.77
2023-03-24T04:47:38.629Z,3.67
2023-03-24T04:50:31.497Z,3.80
2023-03-24T04:53:01.925Z,4.70
2023-03-24T04:56:00.634Z,5.33
2023-03-24T04:58:49.157Z,3.53
2023-03-24T05:01:21.401Z,3.00
2023-03-24T05:04:11.350Z,3.40
2023-03-24T05:06:39.607Z,4.30
2023-03-24T05:09:07.901Z,3.10
2023-03-24T05:11:36.570Z,3.33
2023-03-24T05:14:09.131Z,6.50
2023-03-24T05:16:38.179Z,6.10
2023-03-24T05:19:06.710Z,3.87
2023-03-24T05:21:37.002Z,6.83
2023-03-24T05:24:07.598Z,5.57
2023-03-24T05:26:37.432Z,6.10
2023-03-24T05:29:18.541Z,5.07
2023-03-24T05:31:47.042Z,5.77
2023-03-24T05:34:19.877Z,3.80
2023-03-24T05:36:55.117Z,5.00
2023-03-24T05:39:24.261Z,6.33
2023-03-24T05:42:08.962Z,6.30
2023-03-24T05:44:37.285Z,7.17
2023-03-24T05:47:08.861Z,6.23
2023-03-24T05:49:38.144Z,5.40
2023-03-24T05:52:09.215Z,5.47
2023-03-24T05:54:39.744Z,7.00
2023-03-24T05:57:19.345Z,6.20
2023-03-24T06:00:17.104Z,6.33
2023-03-24T06:03:11.329Z,5.80
2023-03-24T06:05:46.255Z,9.23
2023-03-24T06:08:17.201Z,8.23
2023-03-24T06:10:45.522Z,7.23
2023-03-24T06:13:13.743Z,6.80
2023-03-24T06:15:47.006Z,6.60
2023-03-24T06:18:33.590Z,8.80
2023-03-24T06:21:08.367Z,8.43
2023-03-24T06:23:38.525Z,8.93
2023-03-24T06:26:11.637Z,9.77
2023-03-24T06:28:53.396Z,7.73
2023-03-24T06:31:24.881Z,7.17
2023-03-24T06:33:54.431Z,6.57
2023-03-24T06:36:25.810Z,5.60
2023-03-24T06:38:56.349Z,8.50
2023-03-24T06:41:25.837Z,5.60
2023-03-24T06:43:58.228Z,7.03
2023-03-24T06:46:27.020Z,7.63
2023-03-24T06:48:55.668Z,6.50
2023-03-24T06:51:23.892Z,6.57
2023-03-24T06:53:52.172Z,8.53
2023-03-24T06:56:24.542Z,7.20
2023-03-24T06:58:58.502Z,6.20
2023-03-24T07:01:35.269Z,7.20
2023-03-24T07:04:16.566Z,8.97
2023-03-24T07:07:04.972Z,6.90
2023-03-24T07:09:36.162Z,12.13
2023-03-24T07:12:07.592Z,9.20
2023-03-24T07:14:37.621Z,8.70
2023-03-24T07:17:07.627Z,7.53
2023-03-24T07:19:45.539Z,7.97
2023-03-24T07:22:43.215Z,8.90
2023-03-24T07:25:34.420Z,8.53
2023-03-24T07:28:13.488Z,7.27
2023-03-24T07:30:41.806Z,7.90
2023-03-24T07:33:12.444Z,9.13
2023-03-24T07:35:43.206Z,9.10
2023-03-24T07:38:12.077Z,8.37
2023-03-24T07:40:40.374Z,9.23
2023-03-24T07:43:08.827Z,6.70
2023-03-24T07:45:58.727Z,9.43
2023-03-24T07:48:29.987Z,7.33
2023-03-24T07:50:58.220Z,7.13
2023-03-24T07:53:49.012Z,8.37
2023-03-24T07:56:27.289Z,7.37
2023-03-24T07:58:58.511Z,6.83
2023-03-24T08:01:36.984Z,6.20
2023-03-24T08:04:08.991Z,5.27
2023-03-24T08:06:56.044Z,9.00
2023-03-24T08:09:25.098Z,6.20
2023-03-24T08:11:53.496Z,5.13
2023-03-24T08:14:22.028Z,5.83
2023-03-24T08:16:52.206Z,5.70
2023-03-24T08:19:20.652Z,7.47
2023-03-24T08:21:48.862Z,6.03
2023-03-24T08:24:17.588Z,6.57
2023-03-24T08:26:46.753Z,7.27
2023-03-24T08:29:15.049Z,7.70
2023-03-24T08:31:43.336Z,7.87
2023-03-24T08:34:12.914Z,5.20
2023-03-24T08:36:41.415Z,6.10
2023-03-24T08:39:10.567Z,7.70
2023-03-24T08:41:38.759Z,7.53
2023-03-24T08:44:07.659Z,8.67
2023-03-24T08:46:36.361Z,8.27
2023-03-24T08:49:05.231Z,6.80
2023-03-24T08:51:34.823Z,8.60
2023-03-24T08:54:03.974Z,6.60
2023-03-24T08:56:32.171Z,6.33
2023-03-24T08:59:00.675Z,6.60
2023-03-24T09:01:28.930Z,6.33
2023-03-24T09:03:58.561Z,8.77
2023-03-24T09:06:27.349Z,6.77
2023-03-24T09:08:57.430Z,8.53
2023-03-24T09:11:25.766Z,6.27
2023-03-24T09:13:54.136Z,6.77
2023-03-24T09:16:23.402Z,9.93
2023-03-24T09:18:54.100Z,9.87
2023-03-24T09:21:22.271Z,5.57
2023-03-24T09:23:50.562Z,6.73
2023-03-24T09:26:20.105Z,7.07
2023-03-24T09:28:48.343Z,6.97
2023-03-24T09:31:16.617Z,7.43
2023-03-24T09:33:44.959Z,12.23
2023-03-24T09:36:13.153Z,6.73
2023-03-24T09:38:41.374Z,6.60
2023-03-24T09:41:18.220Z,9.17
2023-03-24T09:43:53.438Z,6.90
2023-03-24T09:46:30.155Z,7.40
2023-03-24T09:48:58.822Z,8.20
2023-03-24T09:51:28.946Z,6.13
2023-03-24T09:54:10.456Z,7.77
2023-03-24T09:56:40.466Z,7.83
2023-03-24T09:59:18.143Z,8.27
2023-03-24T10:01:46.557Z,8.30
2023-03-24T10:04:17.989Z,11.37
2023-03-24T10:06:46.673Z,8.63
2023-03-24T10:09:24.523Z,7.93
2023-03-24T10:12:02.439Z,7.13
2023-03-24T10:14:48.001Z,9.23
2023-03-24T10:17:23.460Z,9.30
2023-03-24T10:20:00.203Z,9.83
2023-03-24T10:22:37.726Z,8.73
2023-03-24T10:25:15.860Z,8.73
2023-03-24T10:27:49.422Z,8.50
2023-03-24T10:30:24.144Z,7.10
2023-03-24T10:32:52.631Z,6.90
2023-03-24T10:35:27.348Z,7.90
2023-03-24T10:38:01.978Z,7.63
2023-03-24T10:40:34.047Z,6.63
2023-03-24T10:43:06.774Z,6.20
2023-03-24T10:45:42.051Z,8.70
2023-03-24T10:48:10.470Z,6.00
2023-03-24T10:50:43.928Z,5.40
2023-03-24T10:53:19.705Z,5.60
2023-03-24T10:55:50.780Z,7.97
2023-03-24T10:58:30.153Z,8.97
2023-03-24T11:01:03.228Z,7.13
2023-03-24T11:03:35.369Z,7.63
2023-03-24T11:06:05.779Z,6.43
2023-03-24T11:08:36.974Z,7.93
2023-03-24T11:11:16.483Z,7.50
2023-03-24T11:13:56.883Z,5.50
2023-03-24T11:16:31.675Z,7.73
2023-03-24T11:19:01.913Z,6.97
2023-03-24T11:21:32.077Z,6.80
2023-03-24T11:24:02.066Z,5.50
2023-03-24T11:26:33.142Z,7.40
2023-03-24T11:29:04.514Z,6.60
2023-03-24T11:31:38.254Z,6.40
2023-03-24T11:34:13.812Z,7.67
2023-03-24T11:36:49.441Z,5.90
2023-03-24T11:39:21.374Z,5.40
2023-03-24T11:42:01.185Z,6.10
2023-03-24T11:44:34.308Z,6.90
2023-03-24T11:47:10.030Z,6.27
2023-03-24T11:49:43.074Z,7.43
2023-03-24T11:52:21.801Z,5.50
2023-03-24T11:54:50.034Z,6.80
2023-03-24T11:57:25.820Z,7.70
2023-03-24T11:59:59.116Z,6.40
2023-03-24T12:02:42.944Z,5.10
2023-03-24T12:05:21.293Z,6.40
2023-03-24T12:08:18.862Z,5.40
2023-03-24T12:11:06.311Z,6.07
2023-03-24T12:13:37.267Z,5.87
2023-03-24T12:16:22.479Z,4.53
2023-03-24T12:19:03.869Z,5.60
2023-03-24T12:21:44.971Z,8.80
2023-03-24T12:24:25.788Z,4.43
2023-03-24T12:26:58.684Z,5.77
2023-03-24T12:29:43.927Z,5.90
2023-03-24T12:32:32.079Z,8.63
2023-03-24T12:35:22.169Z,5.50
2023-03-24T12:37:59.063Z,5.47
2023-03-24T12:40:55.182Z,5.97
2023-03-24T12:43:32.648Z,4.30
2023-03-24T12:46:06.264Z,5.60
2023-03-24T12:48:58.243Z,6.00
2023-03-24T12:51:42.776Z,3.77
2023-03-24T12:54:27.635Z,4.50
2023-03-24T12:56:59.749Z,5.70
2023-03-24T12:59:34.596Z,5.93
2023-03-24T13:02:13.101Z,6.27
2023-03-24T13:04:45.246Z,5.27
2023-03-24T13:07:19.738Z,3.93
2023-03-24T13:10:01.718Z,6.47
2023-03-24T13:12:34.068Z,4.53
2023-03-24T13:15:08.325Z,5.00
2023-03-24T13:17:46.952Z,5.80
2023-03-24T13:20:21.737Z,6.80
2023-03-24T13:22:52.709Z,5.70
2023-03-24T13:25:32.135Z,5.20
2023-03-24T13:28:06.183Z,5.70
2023-03-24T13:30:39.553Z,4.97
2023-03-24T13:33:12.213Z,4.50
2023-03-24T13:36:01.097Z,5.00
2023-03-24T13:38:37.101Z,3.83
2023-03-24T13:41:07.309Z,3.80
2023-03-24T13:43:37.993Z,3.80
2023-03-24T13:46:10.785Z,4.77
2023-03-24T13:48:41.934Z,4.20
2023-03-24T13:51:19.076Z,4.63
2023-03-24T13:53:56.722Z,4.13
2023-03-24T13:56:33.469Z,3.80
2023-03-24T13:59:26.017Z,5.80
2023-03-24T14:02:19.814Z,5.40
2023-03-24T14:04:49.123Z,3.70
2023-03-24T14:07:44.234Z,3.43
2023-03-24T14:10:42.715Z,3.57
2023-03-24T14:13:36.780Z,4.60
2023-03-24T14:16:40.739Z,5.30
2023-03-24T14:19:27.025Z,5.53
2023-03-24T14:22:05.029Z,5.33
2023-03-24T14:24:33.994Z,4.20
2023-03-24T14:27:31.656Z,3.33
2023-03-24T14:30:02.349Z,5.17
2023-03-24T14:32:31.433Z,5.20
2023-03-24T14:35:01.019Z,3.87
2023-03-24T14:37:30.036Z,6.20
2023-03-24T14:39:59.296Z,4.17
2023-03-24T14:42:48.352Z,4.10
2023-03-24T14:45:42.569Z,3.83
2023-03-24T14:48:36.731Z,3.57
2023-03-24T14:51:21.263Z,4.33
2023-03-24T14:53:49.649Z,3.57
2023-03-24T14:56:21.480Z,4.03
2023-03-24T14:58:56.473Z,3.30
2023-03-24T15:01:30.468Z,3.70
2023-03-24T15:04:05.010Z,3.63
2023-03-24T15:06:33.641Z,3.50
2023-03-24T15:09:10.931Z,3.50
2023-03-24T15:11:41.709Z,2.70
2023-03-24T15:14:19.519Z,5.10
2023-03-24T15:16:54.677Z,3.80
2023-03-24T15:19:24.210Z,3.23
2023-03-24T15:22:01.586Z,3.70
2023-03-24T15:24:35.765Z,2.97
2023-03-24T15:27:21.222Z,3.77
2023-03-24T15:29:57.629Z,5.00
2023-03-24T15:32:31.575Z,6.13
2023-03-24T15:35:05.605Z,4.00
2023-03-24T15:37:38.574Z,4.20
2023-03-24T15:40:30.547Z,2.80
2023-03-24T15:43:01.170Z,3.43
2023-03-24T15:45:32.386Z,4.10
2023-03-24T15:48:08.007Z,3.80
2023-03-24T15:50:46.465Z,3.50
2023-03-24T15:53:26.014Z,3.50
2023-03-24T15:56:07.008Z,3.67
2023-03-24T15:58:48.338Z,4.23
2023-03-24T16:01:22.136Z,3.70
2023-03-24T16:03:50.443Z,5.33
2023-03-24T16:06:29.637Z,3.40
2023-03-24T16:09:01.284Z,4.00
2023-03-24T16:11:30.284Z,6.43
2023-03-24T16:13:59.506Z,3.93
2023-03-24T16:16:31.448Z,4.10
2023-03-24T16:18:59.755Z,3.70
2023-03-24T16:21:30.393Z,4.07
2023-03-24T16:23:59.420Z,4.63
2023-03-24T16:26:29.414Z,5.37
2023-03-24T16:29:04.239Z,5.70
2023-03-24T16:31:35.570Z,5.87
2023-03-24T16:34:03.768Z,4.47
2023-03-24T16:36:32.179Z,4.47
2023-03-24T16:39:01.655Z,4.27
2023-03-24T16:41:30.362Z,5.30
2023-03-24T16:43:58.543Z,3.50
2023-03-24T16:46:36.767Z,4.40
2023-03-24T16:49:07.179Z,4.60
2023-03-24T16:51:35.854Z,6.23
2023-03-24T16:54:04.732Z,5.07
2023-03-24T16:56:33.031Z,3.80
2023-03-24T16:59:02.098Z,4.20
2023-03-24T17:01:36.030Z,4.80
2023-03-24T17:04:09.527Z,3.87
2023-03-24T17:06:40.062Z,5.17
2023-03-24T17:09:10.751Z,6.20
2023-03-24T17:11:41.130Z,4.90
2023-03-24T17:14:12.472Z,4.33
2023-03-24T17:16:44.471Z,7.50
2023-03-24T17:19:14.308Z,6.00
2023-03-24T17:21:45.978Z,4.87
2023-03-24T17:24:17.149Z,6.47
2023-03-24T17:26:48.583Z,4.90
2023-03-24T17:29:31.719Z,4.60
2023-03-24T17:32:01.338Z,6.03
2023-03-24T17:34:29.536Z,7.50
2023-03-24T17:36:57.848Z,5.17
2023-03-24T17:39:26.031Z,4.47
2023-03-24T17:41:57.626Z,6.30
2023-03-24T17:44:31.463Z,5.83
2023-03-24T17:47:04.004Z,6.80
2023-03-24T17:49:33.392Z,6.40
2023-03-24T17:52:04.733Z,5.90
2023-03-24T17:54:32.925Z,5.40
2023-03-24T17:57:01.292Z,6.20
2023-03-24T17:59:29.706Z,4.23
2023-03-24T18:01:57.846Z,6.53
2023-03-24T18:04:27.617Z,7.50
2023-03-24T18:06:55.986Z,5.10
2023-03-24T18:09:24.258Z,5.30
2023-03-24T18:11:52.451Z,6.67
2023-03-24T18:14:20.650Z,8.23
2023-03-24T18:16:48.923Z,9.27
2023-03-24T18:19:19.660Z,5.63
2023-03-24T18:21:49.207Z,5.80
2023-03-24T18:24:17.435Z,8.17
2023-03-24T18:26:45.996Z,6.23
2023-03-24T18:29:14.473Z,6.93
2023-03-24T18:31:42.748Z,6.50
2023-03-24T18:34:10.935Z,11.13
2023-03-24T18:36:40.296Z,8.10
2023-03-24T18:39:10.827Z,5.83
2023-03-24T18:41:39.832Z,4.80
2023-03-24T18:44:12.188Z,7.23
2023-03-24T18:46:40.974Z,7.97
2023-03-24T18:49:12.417Z,5.77
2023-03-24T18:51:40.616Z,6.47
2023-03-24T18:54:13.970Z,5.93
2023-03-24T18:56:42.258Z,4.40
2023-03-24T18:59:11.704Z,4.97
2023-03-24T19:01:40.116Z,6.47
2023-03-24T19:04:09.319Z,5.20
2023-03-24T19:06:42.294Z,4.27
2023-03-24T19:09:12.285Z,4.27
2023-03-24T19:11:43.615Z,3.50
2023-03-24T19:14:11.836Z,5.90
2023-03-24T19:16:40.145Z,3.60
2023-03-24T19:19:11.033Z,5.13
2023-03-24T19:21:40.466Z,5.70
2023-03-24T19:24:09.319Z,5.30
2023-03-24T19:26:37.550Z,3.47
2023-03-24T19:29:07.314Z,4.30
2023-03-24T19:31:35.739Z,4.23
2023-03-24T19:34:04.029Z,3.07
2023-03-24T19:36:32.220Z,5.20
2023-03-24T19:39:01.917Z,4.80
2023-03-24T19:41:30.086Z,5.97
2023-03-24T19:43:58.436Z,5.30
2023-03-24T19:46:27.986Z,4.30
2023-03-24T19:48:56.337Z,4.87
2023-03-24T19:51:24.853Z,4.70
2023-03-24T19:53:53.020Z,5.33
2023-03-24T19:56:21.843Z,5.63
2023-03-24T19:58:52.471Z,6.70
2023-03-24T20:01:21.579Z,7.33
2023-03-24T20:03:51.573Z,6.30
2023-03-24T20:06:20.024Z,5.50
2023-03-24T20:08:48.294Z,4.30
2023-03-24T20:11:16.609Z,5.20
2023-03-24T20:13:44.755Z,5.30
2023-03-24T20:16:12.994Z,5.70
2023-03-24T20:18:43.603Z,10.33
2023-03-24T20:21:19.885Z,4.10
2023-03-24T20:23:48.038Z,4.57
2023-03-24T20:26:16.697Z,5.27
2023-03-24T20:28:44.888Z,5.60
2023-03-24T20:31:13.632Z,6.50
2023-03-24T20:33:46.291Z,6.97
2023-03-24T20:36:15.993Z,6.07
2023-03-24T20:38:44.310Z,6.80
2023-03-24T20:41:12.525Z,7.03
2023-03-24T20:43:40.918Z,5.27
2023-03-24T20:46:10.547Z,7.27
2023-03-24T20:48:39.113Z,6.00
2023-03-24T20:51:07.793Z,7.40
2023-03-24T20:53:38.285Z,5.90
2023-03-24T20:56:08.569Z,8.80
2023-03-24T20:58:37.824Z,4.70
2023-03-24T21:01:08.156Z,3.43
2023-03-24T21:03:36.834Z,4.80
2023-03-24T21:06:05.984Z,6.73
2023-03-24T21:08:34.213Z,6.27
2023-03-24T21:11:03.730Z,5.43
2023-03-24T21:13:37.491Z,5.43
2023-03-24T21:16:08.653Z,7.17
2023-03-24T21:18:37.596Z,4.60
2023-03-24T21:21:06.889Z,7.60
2023-03-24T21:23:39.192Z,5.30
2023-03-24T21:26:12.383Z,4.00
2023-03-24T21:28:41.173Z,5.00
2023-03-24T21:31:12.321Z,5.33
2023-03-24T21:33:43.373Z,3.77
2023-03-24T21:36:12.332Z,3.83
2023-03-24T21:38:43.288Z,4.77
2023-03-24T21:41:12.932Z,3.60
2023-03-24T21:43:42.114Z,5.23
2023-03-24T21:46:20.468Z,3.33
2023-03-24T21:48:52.280Z,3.60
2023-03-24T21:51:24.018Z,2.80
2023-03-24T21:53:55.492Z,4.20
2023-03-24T21:56:25.217Z,4.20
2023-03-24T21:58:55.125Z,3.10
2023-03-24T22:01:23.733Z,4.63
2023-03-24T22:03:54.385Z,3.37
2023-03-24T22:06:23.705Z,4.57
2023-03-24T22:08:58.291Z,2.70
2023-03-24T22:11:28.040Z,3.37
2023-03-24T22:13:56.194Z,4.50
2023-03-24T22:16:24.503Z,3.80
2023-03-24T22:18:53.288Z,4.30
2023-03-24T22:21:21.546Z,4.23
2023-03-24T22:23:49.865Z,5.37
2023-03-24T22:26:18.082Z,4.47
2023-03-24T22:28:47.619Z,4.23
2023-03-24T22:31:17.268Z,4.60
2023-03-24T22:33:47.586Z,3.30
2023-03-24T22:36:15.881Z,3.03
2023-03-24T22:38:47.076Z,4.13
2023-03-24T22:41:15.601Z,6.20
2023-03-24T22:43:43.958Z,5.10
2023-03-24T22:46:13.747Z,4.67
2023-03-24T22:48:42.007Z,3.07
2023-03-24T22:51:12.627Z,4.10
2023-03-24T22:53:41.923Z,3.00
2023-03-24T22:56:10.493Z,4.63
2023-03-24T22:58:40.130Z,4.53
2023-03-24T23:01:09.804Z,4.70
2023-03-24T23:03:39.441Z,4.80
2023-03-24T23:06:09.109Z,5.33
2023-03-24T23:08:38.603Z,4.30
2023-03-24T23:11:08.280Z,4.93
2023-03-24T23:13:36.501Z,4.43
2023-03-24T23:16:04.962Z,3.43
2023-03-24T23:18:33.391Z,4.03
2023-03-24T23:21:09.246Z,3.50
2023-03-24T23:23:39.221Z,5.80
2023-03-24T23:26:13.736Z,5.17
2023-03-24T23:28:56.194Z,3.57
2023-03-24T23:31:25.906Z,3.80
2023-03-24T23:33:58.303Z,3.27
2023-03-24T23:36:28.401Z,4.17
2023-03-24T23:38:57.268Z,3.70
2023-03-24T23:41:25.584Z,3.23
2023-03-24T23:43:55.219Z,4.80
2023-03-24T23:46:24.884Z,2.77
2023-03-24T23:48:53.359Z,3.53
2023-03-24T23:51:22.151Z,4.03
2023-03-24T23:53:51.917Z,6.33
2023-03-24T23:56:22.802Z,5.10
2023-03-24T23:58:51.001Z,3.40
